Time;durP1;ratioP1;P1;durP2;ratioP2;P2;SDS_P1;SDS_P2;PMS_P1;PMS_P2;Temp;Humidity;BMP_temperature;BMP_pressure;BME280_temperature;BME280_humidity;BME280_pressure;Samples;Min_cycle;Max_cycle;Signal;HPM_P1;HPM_P2
2023/08/24 00:02:01;;;;;;;7.22;5.40;;;17.40;99.90;;;;;;5075546;28;20051;-55
2023/08/24 00:04:28;;;;;;;6.47;4.72;;;17.40;99.90;;;;;;5069555;28;20052;-55
2023/08/24 00:06:54;;;;;;;5.60;5.05;;;17.40;99.90;;;;;;5065912;28;20033;-56
2023/08/24 00:09:20;;;;;;;8.60;4.85;;;17.40;99.90;;;;;;5080508;28;20044;-55
2023/08/24 00:11:46;;;;;;;9.13;5.45;;;17.30;99.90;;;;;;5063480;28;20048;-56
2023/08/24 00:14:12;;;;;;;7.35;5.35;;;17.40;99.90;;;;;;5073452;28;20036;-56
2023/08/24 00:16:38;;;;;;;6.13;4.90;;;17.30;99.90;;;;;;5079179;28;20041;-55
2023/08/24 00:19:04;;;;;;;8.20;5.00;;;17.30;99.90;;;;;;5063637;28;20096;-55
2023/08/24 00:21:30;;;;;;;6.85;4.82;;;17.30;99.90;;;;;;5075245;28;20036;-56
2023/08/24 00:23:55;;;;;;;6.55;4.85;;;17.30;99.90;;;;;;5072192;28;20037;-55
2023/08/24 00:26:21;;;;;;;8.25;5.13;;;17.20;99.90;;;;;;5074041;28;20454;-56
2023/08/24 00:28:47;;;;;;;8.27;5.60;;;17.20;99.90;;;;;;5072887;28;20041;-55
2023/08/24 00:31:14;;;;;;;8.88;5.30;;;17.20;99.90;;;;;;5069658;28;20049;-55
2023/08/24 00:33:40;;;;;;;7.97;5.32;;;17.10;99.90;;;;;;5068320;28;20036;-55
2023/08/24 00:36:06;;;;;;;8.57;5.13;;;17.10;99.90;;;;;;5077855;28;20044;-55
2023/08/24 00:38:32;;;;;;;8.88;5.45;;;17.10;99.90;;;;;;5075866;28;20362;-55
2023/08/24 00:40:59;;;;;;;12.93;5.63;;;17.00;99.90;;;;;;5071441;28;20105;-56
2023/08/24 00:43:28;;;;;;;10.98;6.07;;;17.00;99.90;;;;;;5070805;28;20040;-55
2023/08/24 00:45:59;;;;;;;8.27;5.53;;;17.00;99.90;;;;;;5063832;28;20061;-55
2023/08/24 00:48:28;;;;;;;10.20;5.53;;;16.90;99.90;;;;;;5069199;28;20397;-56
2023/08/24 00:51:04;;;;;;;7.60;5.25;;;16.90;99.90;;;;;;5070550;28;20036;-55
2023/08/24 00:53:30;;;;;;;11.15;5.90;;;16.90;99.90;;;;;;5076639;28;20048;-55
2023/08/24 00:55:56;;;;;;;10.02;5.57;;;16.90;99.90;;;;;;5071010;28;20416;-55
2023/08/24 00:58:23;;;;;;;11.70;5.55;;;16.90;99.90;;;;;;5064078;28;20045;-56
2023/08/24 01:00:53;;;;;;;11.60;5.32;;;16.90;99.90;;;;;;5067631;28;20049;-56
2023/08/24 01:03:22;;;;;;;7.95;5.13;;;17.00;99.90;;;;;;5075910;28;20516;-55
2023/08/24 01:05:48;;;;;;;9.73;5.10;;;16.90;99.90;;;;;;5067366;28;20614;-55
2023/08/24 01:08:13;;;;;;;12.98;5.10;;;17.00;99.90;;;;;;5062046;28;20041;-55
2023/08/24 01:11:04;;;;;;;10.23;5.30;;;17.00;99.90;;;;;;5066718;28;20071;-56
2023/08/24 01:13:59;;;;;;;8.80;5.28;;;17.00;99.90;;;;;;5063819;28;20051;-56
2023/08/24 01:16:31;;;;;;;7.88;5.13;;;17.00;99.90;;;;;;5077901;28;20043;-55
2023/08/24 01:19:02;;;;;;;9.27;5.18;;;17.00;99.90;;;;;;5060853;28;20045;-56
2023/08/24 01:21:29;;;;;;;11.27;5.72;;;17.00;99.90;;;;;;5068272;28;20292;-56
2023/08/24 01:24:39;;;;;;;9.80;5.43;;;17.00;99.90;;;;;;5072634;28;20036;-56
2023/08/24 01:27:05;;;;;;;7.82;4.80;;;17.00;99.90;;;;;;5033960;28;20139;-55
2023/08/24 01:29:31;;;;;;;8.43;5.35;;;16.90;99.90;;;;;;5036759;28;20056;-56
2023/08/24 01:31:57;;;;;;;10.00;5.55;;;17.00;99.90;;;;;;5050747;28;20130;-56
2023/08/24 01:34:23;;;;;;;10.05;5.80;;;16.90;99.90;;;;;;5061610;28;20513;-55
2023/08/24 01:36:48;;;;;;;10.52;5.10;;;16.90;99.90;;;;;;5068704;28;20075;-55
2023/08/24 01:39:40;;;;;;;8.82;5.88;;;16.90;99.90;;;;;;5068298;28;20041;-55
2023/08/24 01:42:10;;;;;;;8.32;5.53;;;17.00;99.90;;;;;;5075143;28;20131;-55
2023/08/24 01:44:41;;;;;;;7.47;5.93;;;16.90;99.90;;;;;;5069493;28;20048;-55
2023/08/24 01:47:11;;;;;;;6.97;5.35;;;16.90;99.90;;;;;;5061633;28;20458;-55
2023/08/24 01:49:38;;;;;;;12.40;5.78;;;17.00;99.90;;;;;;5062711;28;20045;-56
2023/08/24 01:52:05;;;;;;;9.30;5.75;;;17.00;99.90;;;;;;5068318;28;20102;-55
2023/08/24 01:54:31;;;;;;;9.50;5.78;;;17.00;99.90;;;;;;5070740;28;20092;-55
2023/08/24 01:56:57;;;;;;;8.48;5.43;;;17.00;99.90;;;;;;5067136;28;20049;-56
2023/08/24 01:59:22;;;;;;;10.48;6.00;;;17.00;99.90;;;;;;5066964;28;20141;-55
2023/08/24 02:01:48;;;;;;;8.38;5.40;;;16.90;99.90;;;;;;5062122;28;20192;-55
2023/08/24 02:04:14;;;;;;;10.05;5.38;;;16.90;99.90;;;;;;5072776;28;20033;-55
2023/08/24 02:06:39;;;;;;;11.15;6.22;;;16.90;99.90;;;;;;5068570;28;20048;-56
2023/08/24 02:09:05;;;;;;;9.95;5.80;;;16.90;99.90;;;;;;5062160;28;20097;-56
2023/08/24 02:11:30;;;;;;;10.93;6.30;;;16.90;99.90;;;;;;5068258;28;20044;-55
2023/08/24 02:13:56;;;;;;;12.25;6.63;;;16.90;99.90;;;;;;5066063;28;20072;-55
2023/08/24 02:16:22;;;;;;;8.27;5.63;;;16.90;99.90;;;;;;5070398;28;20059;-56
2023/08/24 02:18:48;;;;;;;10.60;6.43;;;16.90;99.90;;;;;;5067993;28;20059;-55
2023/08/24 02:21:15;;;;;;;10.05;6.28;;;16.90;99.90;;;;;;5063895;28;20037;-55
2023/08/24 02:23:40;;;;;;;12.65;6.40;;;16.90;99.90;;;;;;5066551;28;20029;-56
2023/08/24 02:26:06;;;;;;;10.95;6.78;;;16.90;99.90;;;;;;5065361;28;20097;-56
2023/08/24 02:28:33;;;;;;;15.32;7.13;;;16.90;99.90;;;;;;5064618;28;20028;-55
2023/08/24 02:31:03;;;;;;;13.82;7.13;;;16.90;99.90;;;;;;5066892;28;20037;-56
2023/08/24 02:33:29;;;;;;;12.60;6.78;;;16.90;99.90;;;;;;5064740;28;20059;-55
2023/08/24 02:35:55;;;;;;;14.20;6.68;;;16.80;99.90;;;;;;5060962;28;20052;-56
2023/08/24 02:38:21;;;;;;;11.93;6.60;;;16.80;99.90;;;;;;5064192;28;20044;-54
2023/08/24 02:40:46;;;;;;;15.95;7.10;;;16.80;99.90;;;;;;5068423;28;20071;-56
2023/08/24 02:43:12;;;;;;;13.75;6.65;;;16.80;99.90;;;;;;5064241;28;20051;-56
2023/08/24 02:45:38;;;;;;;12.10;7.10;;;16.30;99.90;;;;;;5061954;28;20051;-56
2023/08/24 02:48:04;;;;;;;11.45;7.13;;;16.80;99.90;;;;;;5064395;28;20045;-56
2023/08/24 02:50:30;;;;;;;10.48;7.07;;;16.80;99.90;;;;;;5066767;28;20040;-56
2023/08/24 02:52:57;;;;;;;13.55;7.32;;;16.70;99.90;;;;;;5072647;28;20544;-56
2023/08/24 02:55:24;;;;;;;15.88;7.40;;;16.70;99.90;;;;;;5067643;28;20037;-56
2023/08/24 02:57:50;;;;;;;13.80;7.75;;;16.60;99.90;;;;;;5067085;28;20051;-56
2023/08/24 03:00:16;;;;;;;10.73;6.97;;;16.70;99.90;;;;;;5066259;28;20116;-56
2023/08/24 03:02:42;;;;;;;11.85;7.78;;;16.70;99.90;;;;;;5069704;28;20048;-55
2023/08/24 03:05:08;;;;;;;12.93;7.55;;;16.60;99.90;;;;;;5071596;28;20126;-56
2023/08/24 03:07:34;;;;;;;12.73;7.60;;;16.60;99.90;;;;;;5065191;28;20100;-57
2023/08/24 03:09:59;;;;;;;10.55;7.70;;;16.60;99.90;;;;;;5066555;28;20043;-55
2023/08/24 03:12:25;;;;;;;12.57;7.72;;;16.60;99.90;;;;;;5062701;28;20106;-55
2023/08/24 03:14:54;;;;;;;13.88;7.78;;;16.50;99.90;;;;;;5061321;28;20111;-55
2023/08/24 03:17:20;;;;;;;10.35;7.47;;;16.50;99.90;;;;;;5064071;28;20060;-55
2023/08/24 03:19:46;;;;;;;9.40;7.40;;;16.50;99.90;;;;;;5063324;28;20444;-56
2023/08/24 03:22:12;;;;;;;15.80;7.70;;;16.50;99.90;;;;;;5069106;28;20041;-55
2023/08/24 03:24:37;;;;;;;10.68;7.35;;;16.50;99.90;;;;;;5070355;28;20150;-56
2023/08/24 03:27:03;;;;;;;17.85;7.60;;;16.50;99.90;;;;;;5067848;28;20048;-56
2023/08/24 03:29:29;;;;;;;14.55;7.10;;;16.50;99.90;;;;;;5057864;28;20044;-55
2023/08/24 03:31:54;;;;;;;16.73;7.80;;;16.50;99.90;;;;;;5065172;28;20044;-55
2023/08/24 03:34:23;;;;;;;13.32;7.40;;;16.50;99.90;;;;;;5068736;28;20051;-55
2023/08/24 03:36:49;;;;;;;13.60;7.80;;;16.50;99.90;;;;;;5067072;28;20068;-56
2023/08/24 03:39:17;;;;;;;15.98;7.43;;;16.40;99.90;;;;;;5075644;28;20185;-55
2023/08/24 03:41:43;;;;;;;15.38;7.88;;;16.40;99.90;;;;;;5082403;28;20551;-55
2023/08/24 03:44:09;;;;;;;10.65;7.10;;;16.40;99.90;;;;;;5070297;28;20096;-55
2023/08/24 03:46:34;;;;;;;14.75;7.82;;;16.40;99.90;;;;;;5066602;28;20040;-55
2023/08/24 03:49:00;;;;;;;14.35;8.02;;;16.30;99.90;;;;;;5073446;28;20092;-55
2023/08/24 03:51:26;;;;;;;14.93;8.05;;;16.30;99.90;;;;;;5077109;28;20044;-56
2023/08/24 03:53:51;;;;;;;17.10;8.40;;;16.30;99.90;;;;;;5067211;28;20045;-56
2023/08/24 03:56:17;;;;;;;12.48;7.65;;;16.30;99.90;;;;;;5080454;28;20505;-55
2023/08/24 03:58:43;;;;;;;16.35;7.80;;;16.20;99.90;;;;;;5071175;28;20521;-55
2023/08/24 04:01:12;;;;;;;12.88;8.20;;;16.20;99.90;;;;;;5075171;28;20067;-56
2023/08/24 04:03:37;;;;;;;13.40;8.27;;;16.20;99.90;;;;;;5076486;28;20044;-56
2023/08/24 04:06:03;;;;;;;10.20;7.70;;;16.10;99.90;;;;;;5077745;28;20060;-55
2023/08/24 04:08:29;;;;;;;15.50;8.45;;;16.10;99.90;;;;;;5075851;28;20033;-56
2023/08/24 04:10:54;;;;;;;14.43;8.60;;;16.10;99.90;;;;;;5072372;28;20067;-55
2023/08/24 04:13:21;;;;;;;12.98;7.65;;;16.10;99.90;;;;;;5079497;28;20044;-56
2023/08/24 04:15:47;;;;;;;12.10;7.72;;;16.10;99.90;;;;;;5078629;28;20116;-55
2023/08/24 04:18:12;;;;;;;13.82;7.82;;;16.10;99.90;;;;;;5075421;28;20071;-55
2023/08/24 04:20:38;;;;;;;15.10;7.80;;;16.10;99.90;;;;;;5078714;28;20473;-55
2023/08/24 04:23:04;;;;;;;11.70;8.05;;;16.00;99.90;;;;;;5077962;28;20040;-56
2023/08/24 04:25:30;;;;;;;13.05;8.30;;;16.10;99.90;;;;;;5067801;28;20076;-55
2023/08/24 04:27:56;;;;;;;14.48;7.93;;;16.00;99.90;;;;;;5068551;28;20124;-57
2023/08/24 04:30:21;;;;;;;11.82;7.97;;;16.00;99.90;;;;;;5079536;28;20068;-56
2023/08/24 04:32:47;;;;;;;9.57;8.02;;;16.00;99.90;;;;;;5066967;28;20037;-56
2023/08/24 04:35:13;;;;;;;13.60;8.63;;;16.00;99.90;;;;;;5076863;28;20051;-56
2023/08/24 04:37:39;;;;;;;13.88;8.05;;;16.00;99.90;;;;;;5077221;28;20413;-56
2023/08/24 04:40:07;;;;;;;20.65;8.98;;;16.00;99.90;;;;;;5071675;28;20032;-56
2023/08/24 04:42:33;;;;;;;14.15;8.88;;;16.00;99.90;;;;;;5075385;28;20500;-55
2023/08/24 04:44:59;;;;;;;16.30;8.95;;;15.90;99.90;;;;;;5073029;28;20045;-55
2023/08/24 04:47:24;;;;;;;17.25;9.02;;;15.90;99.90;;;;;;5069522;28;20448;-56
2023/08/24 04:49:50;;;;;;;15.20;9.23;;;15.90;99.90;;;;;;5068326;28;20045;-56
2023/08/24 04:52:15;;;;;;;14.95;9.80;;;15.90;99.90;;;;;;5070291;28;20036;-56
2023/08/24 04:54:41;;;;;;;13.82;10.18;;;15.90;99.90;;;;;;5068933;28;20068;-55
2023/08/24 04:57:07;;;;;;;14.57;9.85;;;15.90;99.90;;;;;;5074884;28;20044;-56
2023/08/24 04:59:32;;;;;;;17.38;9.82;;;15.80;99.90;;;;;;5073382;28;20041;-55
2023/08/24 05:01:58;;;;;;;20.35;10.05;;;15.90;99.90;;;;;;5062446;28;20060;-55
2023/08/24 05:04:24;;;;;;;13.57;10.15;;;15.90;99.90;;;;;;5068255;28;20738;-55
2023/08/24 05:06:50;;;;;;;17.50;10.27;;;15.90;99.90;;;;;;5063597;28;20099;-57
2023/08/24 05:09:16;;;;;;;17.70;12.05;;;15.90;99.90;;;;;;5072264;28;20193;-57
2023/08/24 05:11:41;;;;;;;14.20;10.98;;;15.90;99.90;;;;;;5072743;28;20036;-55
2023/08/24 05:14:07;;;;;;;14.30;11.43;;;15.90;99.90;;;;;;5070590;28;20143;-57
2023/08/24 05:16:33;;;;;;;16.02;9.90;;;15.90;99.90;;;;;;5075782;28;20037;-56
2023/08/24 05:18:58;;;;;;;19.52;11.88;;;15.90;99.90;;;;;;5068138;28;20111;-56
2023/08/24 05:21:24;;;;;;;17.50;11.15;;;15.90;99.90;;;;;;5071763;28;20389;-57
2023/08/24 05:23:50;;;;;;;21.75;11.25;;;16.00;99.90;;;;;;5064112;28;20041;-56
2023/08/24 05:26:22;;;;;;;15.40;11.23;;;16.00;99.90;;;;;;5076059;28;20473;-56
2023/08/24 05:28:48;;;;;;;16.60;11.20;;;16.00;99.90;;;;;;5065300;28;20080;-55
2023/08/24 05:31:13;;;;;;;17.30;11.57;;;16.00;99.90;;;;;;5072841;28;20040;-56
2023/08/24 05:33:39;;;;;;;16.98;11.40;;;16.00;99.90;;;;;;5075876;28;20037;-55
2023/08/24 05:36:05;;;;;;;16.63;11.32;;;16.10;99.90;;;;;;5068147;28;20036;-56
2023/08/24 05:38:30;;;;;;;17.10;11.23;;;16.10;99.90;;;;;;5074181;28;20041;-56
2023/08/24 05:40:56;;;;;;;20.77;11.77;;;16.10;99.90;;;;;;5067238;28;20497;-56
2023/08/24 05:43:22;;;;;;;18.85;11.45;;;16.10;99.90;;;;;;5068230;28;21909;-56
2023/08/24 05:45:50;;;;;;;15.07;10.80;;;16.20;99.90;;;;;;5065133;28;20122;-56
2023/08/24 05:48:16;;;;;;;14.95;11.02;;;16.20;99.90;;;;;;5059784;28;20087;-57
2023/08/24 05:50:46;;;;;;;16.90;11.70;;;16.20;99.90;;;;;;5062237;28;20040;-56
2023/08/24 05:53:12;;;;;;;15.27;11.32;;;16.30;99.90;;;;;;5061708;28;20053;-56
2023/08/24 05:55:38;;;;;;;14.45;11.00;;;16.40;99.90;;;;;;5069024;28;20905;-56
2023/08/24 05:58:04;;;;;;;21.90;11.60;;;16.40;99.90;;;;;;5067212;28;20051;-55
2023/08/24 06:00:30;;;;;;;22.42;11.75;;;16.50;99.90;;;;;;5064495;28;20119;-56
2023/08/24 06:02:55;;;;;;;15.68;10.45;;;16.60;99.90;;;;;;5070053;28;20037;-56
2023/08/24 06:05:22;;;;;;;15.45;10.90;;;16.70;99.90;;;;;;5069908;28;20115;-56
2023/08/24 06:07:48;;;;;;;14.88;10.15;;;16.70;99.90;;;;;;5068879;28;20044;-56
2023/08/24 06:10:14;;;;;;;17.52;10.23;;;16.70;99.90;;;;;;5068347;28;20101;-55
2023/08/24 06:12:40;;;;;;;16.67;10.68;;;16.70;99.90;;;;;;5064427;28;20068;-55
2023/08/24 06:15:09;;;;;;;13.93;10.48;;;16.70;99.90;;;;;;5069790;28;20361;-56
2023/08/24 06:17:35;;;;;;;16.27;10.02;;;16.70;99.90;;;;;;5060462;28;20120;-56
2023/08/24 06:20:05;;;;;;;16.10;9.25;;;16.80;99.90;;;;;;5069007;28;20052;-57
2023/08/24 06:22:31;;;;;;;17.10;9.80;;;16.80;99.90;;;;;;5063879;28;20033;-55
2023/08/24 06:25:00;;;;;;;14.70;10.32;;;16.90;99.90;;;;;;5062417;28;20119;-56
2023/08/24 06:27:26;;;;;;;14.23;9.60;;;16.90;99.90;;;;;;5063762;28;20029;-55
2023/08/24 06:29:52;;;;;;;15.93;9.68;;;17.00;99.90;;;;;;5067415;28;20155;-56
2023/08/24 06:32:18;;;;;;;14.38;9.75;;;17.00;99.90;;;;;;5061745;28;20041;-57
2023/08/24 06:34:43;;;;;;;15.75;10.48;;;17.10;99.90;;;;;;5068120;28;20047;-55
2023/08/24 06:37:09;;;;;;;17.45;10.30;;;17.20;99.90;;;;;;5065041;28;20134;-56
2023/08/24 06:39:34;;;;;;;22.60;10.77;;;17.20;99.90;;;;;;5063190;28;20048;-57
2023/08/24 06:42:02;;;;;;;14.98;11.00;;;17.30;99.90;;;;;;5065038;28;20135;-56
2023/08/24 06:44:28;;;;;;;15.00;10.13;;;17.30;99.90;;;;;;5069305;28;20055;-56
2023/08/24 06:46:53;;;;;;;16.60;11.05;;;17.40;99.90;;;;;;5077488;28;20103;-56
2023/08/24 06:49:20;;;;;;;15.98;11.60;;;17.40;99.90;;;;;;5070312;28;20056;-56
2023/08/24 06:51:45;;;;;;;20.27;11.95;;;17.50;99.90;;;;;;5061721;28;20074;-56
2023/08/24 06:54:11;;;;;;;19.40;11.13;;;17.60;99.90;;;;;;5065089;28;20132;-56
2023/08/24 06:56:37;;;;;;;17.42;11.57;;;17.70;99.90;;;;;;5067334;28;20044;-56
2023/08/24 06:59:03;;;;;;;14.20;10.70;;;17.90;99.90;;;;;;5075532;28;20068;-56
2023/08/24 07:01:29;;;;;;;16.88;10.68;;;18.20;99.90;;;;;;5065534;28;20132;-56
2023/08/24 07:03:54;;;;;;;15.40;10.18;;;18.50;99.90;;;;;;5095773;28;20500;-56
2023/08/24 07:06:20;;;;;;;11.85;9.98;;;18.90;99.90;;;;;;5062116;28;20041;-57
2023/08/24 07:08:46;;;;;;;14.85;9.52;;;19.20;99.90;;;;;;5074404;28;20028;-56
2023/08/24 07:11:13;;;;;;;12.98;9.10;;;19.60;99.90;;;;;;5073025;28;20037;-57
2023/08/24 07:13:39;;;;;;;15.32;9.27;;;19.90;99.90;;;;;;5071822;28;21139;-56
2023/08/24 07:16:05;;;;;;;15.27;9.45;;;20.20;99.90;;;;;;5068281;28;20037;-57
2023/08/24 07:18:31;;;;;;;11.32;9.10;;;20.50;99.90;;;;;;5064899;28;20080;-59
2023/08/24 07:20:56;;;;;;;14.93;9.07;;;20.70;99.90;;;;;;5066569;28;20079;-56
2023/08/24 07:23:22;;;;;;;12.98;8.60;;;20.90;99.90;;;;;;5064833;28;20036;-56
2023/08/24 07:25:48;;;;;;;10.98;8.55;;;21.10;99.90;;;;;;5065909;28;20044;-57
2023/08/24 07:28:14;;;;;;;12.27;9.10;;;21.20;99.90;;;;;;5059658;28;20568;-56
2023/08/24 07:30:39;;;;;;;15.25;9.15;;;21.30;99.90;;;;;;5073447;28;20377;-57
2023/08/24 07:33:05;;;;;;;8.73;7.82;;;21.50;99.90;;;;;;5067517;28;20041;-56
2023/08/24 07:35:31;;;;;;;11.02;8.02;;;21.60;99.90;;;;;;5065447;28;20483;-56
2023/08/24 07:37:57;;;;;;;17.33;8.93;;;21.80;99.90;;;;;;5066531;28;20043;-56
2023/08/24 07:40:23;;;;;;;11.57;7.75;;;22.00;99.90;;;;;;5059103;28;20071;-55
2023/08/24 07:42:52;;;;;;;17.15;8.48;;;22.20;99.90;;;;;;5064873;28;20041;-56
2023/08/24 07:45:19;;;;;;;10.15;7.03;;;22.30;99.90;;;;;;5060435;28;20063;-56
2023/08/24 07:47:44;;;;;;;13.65;8.93;;;22.40;99.90;;;;;;5065760;28;20044;-56
2023/08/24 07:50:11;;;;;;;22.63;12.13;;;22.50;99.90;;;;;;5071805;28;20530;-55
2023/08/24 07:52:38;;;;;;;20.13;10.65;;;22.50;99.90;;;;;;5080404;28;20051;-56
2023/08/24 07:55:06;;;;;;;13.82;9.02;;;22.40;99.90;;;;;;5069278;28;20039;-56
2023/08/24 07:57:36;;;;;;;11.23;8.05;;;22.30;99.90;;;;;;5064957;28;20099;-56
2023/08/24 08:00:04;;;;;;;11.30;9.48;;;22.30;99.90;;;;;;5062739;28;20607;-56
2023/08/24 08:02:32;;;;;;;10.88;8.35;;;22.30;99.90;;;;;;5061734;28;20460;-56
2023/08/24 08:05:01;;;;;;;14.02;8.23;;;22.20;99.90;;;;;;5074045;28;20076;-56
2023/08/24 08:07:32;;;;;;;12.57;9.52;;;22.10;99.90;;;;;;5067859;28;20087;-56
2023/08/24 08:09:58;;;;;;;13.38;9.40;;;22.00;99.90;;;;;;5066024;28;20049;-55
2023/08/24 08:12:24;;;;;;;15.50;9.43;;;22.00;99.90;;;;;;5072552;28;20045;-55
2023/08/24 08:14:50;;;;;;;14.07;9.05;;;21.90;99.90;;;;;;5069139;28;20047;-56
2023/08/24 08:17:15;;;;;;;14.52;9.90;;;21.90;99.90;;;;;;5071812;28;20051;-56
2023/08/24 08:19:41;;;;;;;13.60;9.73;;;21.80;99.90;;;;;;5063730;28;20037;-55
2023/08/24 08:22:07;;;;;;;14.93;9.63;;;21.80;99.90;;;;;;5063916;28;20037;-57
2023/08/24 08:24:33;;;;;;;13.23;9.23;;;21.80;99.90;;;;;;5071111;28;20041;-55
2023/08/24 08:26:59;;;;;;;13.23;9.50;;;21.80;99.90;;;;;;5075709;28;20757;-56
2023/08/24 08:29:25;;;;;;;13.20;10.10;;;21.80;99.90;;;;;;5067513;28;20041;-55
2023/08/24 08:31:51;;;;;;;15.80;10.68;;;21.80;99.90;;;;;;5068992;28;20111;-56
2023/08/24 08:34:16;;;;;;;13.60;10.23;;;21.90;99.90;;;;;;5075401;28;20135;-56
2023/08/24 08:36:42;;;;;;;14.68;10.38;;;21.90;99.90;;;;;;5078389;28;20025;-56
2023/08/24 08:39:08;;;;;;;12.93;10.32;;;22.00;99.90;;;;;;5079863;28;20070;-56
2023/08/24 08:41:41;;;;;;;13.60;8.52;;;22.10;99.90;;;;;;5077841;28;20048;-56
2023/08/24 08:44:09;;;;;;;15.85;10.05;;;22.20;99.90;;;;;;5078593;28;20067;-55
2023/08/24 08:46:34;;;;;;;14.73;9.82;;;22.30;99.90;;;;;;5077092;28;20128;-56
2023/08/24 08:49:01;;;;;;;13.45;9.85;;;22.40;99.90;;;;;;5076575;28;20040;-56
2023/08/24 08:51:28;;;;;;;13.52;9.93;;;22.50;99.90;;;;;;5076183;28;20051;-56
2023/08/24 08:53:54;;;;;;;14.35;9.50;;;22.60;99.90;;;;;;5074496;28;20040;-57
2023/08/24 08:56:20;;;;;;;17.98;9.77;;;22.60;99.90;;;;;;5080048;28;20033;-56
2023/08/24 08:58:47;;;;;;;12.52;8.80;;;22.70;99.90;;;;;;5085781;28;20504;-56
2023/08/24 09:01:13;;;;;;;15.13;9.70;;;22.80;99.90;;;;;;5077578;28;20044;-57
2023/08/24 09:03:40;;;;;;;12.13;9.32;;;22.90;99.90;;;;;;5071508;28;20062;-56
2023/08/24 09:06:06;;;;;;;16.48;10.00;;;22.90;99.90;;;;;;5080682;28;20067;-56
2023/08/24 09:08:32;;;;;;;13.77;9.57;;;22.90;99.90;;;;;;5067583;28;20533;-56
2023/08/24 09:11:02;;;;;;;14.45;8.75;;;22.90;99.90;;;;;;5061109;28;20795;-56
2023/08/24 09:13:29;;;;;;;15.38;9.52;;;23.00;99.90;;;;;;5068699;28;20442;-56
2023/08/24 09:16:04;;;;;;;12.70;9.07;;;23.00;99.90;;;;;;5058689;28;20051;-56
2023/08/24 09:18:37;;;;;;;12.38;8.80;;;23.10;99.90;;;;;;5062788;28;20127;-56
2023/08/24 09:21:14;;;;;;;14.65;8.50;;;23.10;99.90;;;;;;5073154;28;20429;-56
2023/08/24 09:23:53;;;;;;;12.68;7.93;;;23.10;99.90;;;;;;5092410;28;20462;-57
2023/08/24 09:26:33;;;;;;;9.32;7.47;;;23.20;99.90;;;;;;5067022;28;20048;-57
2023/08/24 09:28:59;;;;;;;11.90;7.97;;;23.20;99.90;;;;;;5067176;28;20123;-56
2023/08/24 09:31:38;;;;;;;11.90;8.30;;;23.20;99.90;;;;;;5069562;28;20045;-56
2023/08/24 09:34:05;;;;;;;11.57;7.72;;;23.20;99.90;;;;;;5069256;28;20058;-56
2023/08/24 09:36:35;;;;;;;8.40;7.00;;;23.20;99.90;;;;;;5062600;28;20043;-56
2023/08/24 09:39:04;;;;;;;11.82;7.50;;;23.10;99.90;;;;;;5070443;28;20455;-56
2023/08/24 09:41:42;;;;;;;10.90;7.53;;;23.10;99.90;;;;;;5056959;28;20055;-56
2023/08/24 09:44:12;;;;;;;11.60;8.23;;;23.00;99.90;;;;;;5072241;28;20080;-56
2023/08/24 09:46:39;;;;;;;13.98;8.35;;;23.00;99.90;;;;;;5063744;28;20040;-55
2023/08/24 09:49:06;;;;;;;15.80;8.15;;;23.00;99.90;;;;;;5062505;28;20077;-57
2023/08/24 09:51:33;;;;;;;13.55;8.75;;;22.90;99.90;;;;;;5062216;28;20103;-56
2023/08/24 09:54:02;;;;;;;11.32;8.07;;;22.90;99.90;;;;;;5068006;28;20055;-56
2023/08/24 09:56:28;;;;;;;14.35;8.10;;;22.80;99.90;;;;;;5070091;28;20090;-57
2023/08/24 09:58:57;;;;;;;13.40;8.48;;;22.80;99.90;;;;;;5067202;28;20084;-56
2023/08/24 10:01:24;;;;;;;11.35;8.57;;;22.70;99.90;;;;;;5066558;28;20036;-58
2023/08/24 10:03:56;;;;;;;10.38;8.18;;;22.70;99.90;;;;;;5068348;28;20059;-56
2023/08/24 10:06:22;;;;;;;12.20;8.55;;;22.70;99.90;;;;;;5073429;28;20052;-56
2023/08/24 10:08:58;;;;;;;11.98;8.60;;;22.70;99.90;;;;;;5075291;28;20059;-56
2023/08/24 10:11:28;;;;;;;11.93;8.27;;;22.70;99.90;;;;;;5065260;28;20120;-56
2023/08/24 10:14:16;;;;;;;12.52;8.73;;;22.60;99.90;;;;;;5061857;28;20041;-56
2023/08/24 10:16:46;;;;;;;11.57;8.27;;;22.60;99.90;;;;;;5065155;28;20055;-55
2023/08/24 10:19:13;;;;;;;11.85;8.20;;;22.60;99.90;;;;;;5064666;28;20053;-56
2023/08/24 10:21:40;;;;;;;15.32;8.40;;;22.50;99.90;;;;;;5068183;28;20037;-59
2023/08/24 10:24:08;;;;;;;11.52;8.73;;;22.50;99.90;;;;;;5069034;28;20064;-58
2023/08/24 10:26:34;;;;;;;9.80;8.73;;;22.50;99.90;;;;;;5063620;28;20040;-58
2023/08/24 10:29:00;;;;;;;11.30;8.55;;;22.50;99.90;;;;;;5073528;28;20071;-59
2023/08/24 10:31:26;;;;;;;14.05;9.20;;;22.40;99.90;;;;;;5064446;28;20040;-59
2023/08/24 10:33:54;;;;;;;11.63;9.25;;;22.40;99.90;;;;;;5071252;28;20048;-56
2023/08/24 10:36:22;;;;;;;12.23;8.25;;;22.40;99.90;;;;;;5067352;28;20100;-56
2023/08/24 10:38:48;;;;;;;11.98;8.70;;;22.40;99.90;;;;;;5068565;28;20083;-58
2023/08/24 10:41:14;;;;;;;13.20;9.52;;;22.40;99.90;;;;;;5063019;28;20045;-56
2023/08/24 10:43:41;;;;;;;14.82;9.20;;;22.40;99.90;;;;;;5074426;28;20103;-56
2023/08/24 10:46:19;;;;;;;12.10;9.15;;;22.40;99.90;;;;;;5059938;28;20045;-56
2023/08/24 10:48:44;;;;;;;12.60;9.85;;;22.40;99.90;;;;;;5067162;28;20041;-56
2023/08/24 10:51:22;;;;;;;13.63;9.07;;;22.40;99.90;;;;;;5061713;28;20062;-56
2023/08/24 10:53:55;;;;;;;15.07;9.98;;;22.40;99.90;;;;;;5061456;28;20079;-57
2023/08/24 10:56:29;;;;;;;15.73;10.48;;;22.50;99.90;;;;;;5069644;28;20683;-57
2023/08/24 10:59:11;;;;;;;13.73;10.40;;;22.50;99.90;;;;;;5069890;28;20060;-56
2023/08/24 11:01:52;;;;;;;11.68;10.00;;;22.50;99.90;;;;;;5063952;28;20143;-56
2023/08/24 11:04:18;;;;;;;16.25;10.60;;;22.60;99.90;;;;;;5064252;28;20495;-56
2023/08/24 11:07:02;;;;;;;13.00;9.98;;;22.60;99.90;;;;;;5068881;28;20041;-56
2023/08/24 11:09:46;;;;;;;13.13;10.88;;;22.70;99.90;;;;;;5074800;28;20643;-57
2023/08/24 11:12:12;;;;;;;14.35;9.85;;;22.70;99.90;;;;;;5093368;28;20076;-55
2023/08/24 11:14:51;;;;;;;14.85;9.90;;;22.80;99.90;;;;;;5065764;28;20131;-57
2023/08/24 11:17:21;;;;;;;15.88;11.25;;;22.80;99.90;;;;;;5062557;28;20048;-56
2023/08/24 11:19:51;;;;;;;18.63;10.77;;;22.90;99.90;;;;;;5065416;28;20040;-57
2023/08/24 11:22:21;;;;;;;11.73;10.10;;;23.00;99.90;;;;;;5075936;28;20048;-57
2023/08/24 11:24:46;;;;;;;12.68;10.00;;;23.00;99.90;;;;;;5068577;28;20560;-58
2023/08/24 11:27:12;;;;;;;12.52;10.27;;;23.10;99.90;;;;;;5061101;28;20513;-56
2023/08/24 11:29:38;;;;;;;14.50;10.70;;;23.20;99.90;;;;;;5066562;28;20100;-57
2023/08/24 11:32:04;;;;;;;16.45;10.70;;;23.30;99.90;;;;;;5065884;28;20048;-57
2023/08/24 11:34:30;;;;;;;12.00;10.52;;;23.30;99.90;;;;;;5064435;28;20045;-56
2023/08/24 11:36:56;;;;;;;16.48;11.48;;;23.40;99.90;;;;;;5060198;28;20064;-57
2023/08/24 11:39:24;;;;;;;13.18;10.68;;;23.40;99.90;;;;;;5057492;28;20047;-57
2023/08/24 11:41:59;;;;;;;14.52;11.00;;;23.50;99.90;;;;;;5059469;28;20519;-57
2023/08/24 11:44:24;;;;;;;14.68;11.25;;;23.50;99.90;;;;;;5065636;28;20041;-56
2023/08/24 11:46:50;;;;;;;19.15;11.25;;;23.50;99.90;;;;;;5064407;28;20149;-57
2023/08/24 11:49:16;;;;;;;14.63;11.10;;;23.50;99.90;;;;;;5059099;28;20040;-56
2023/08/24 11:51:42;;;;;;;17.55;11.20;;;23.50;99.90;;;;;;5069376;28;20059;-56
2023/08/24 11:54:08;;;;;;;15.05;10.80;;;23.50;99.90;;;;;;5063292;28;20067;-56
2023/08/24 11:56:41;;;;;;;14.93;11.48;;;23.50;99.90;;;;;;5065197;28;20047;-57
2023/08/24 11:59:12;;;;;;;12.35;10.60;;;23.50;99.90;;;;;;5066207;28;20040;-57
2023/08/24 12:01:39;;;;;;;18.13;11.82;;;23.60;99.90;;;;;;5068225;28;20789;-57
2023/08/24 12:04:05;;;;;;;17.77;11.57;;;23.50;99.90;;;;;;5062411;28;20541;-57
2023/08/24 12:06:31;;;;;;;15.60;11.27;;;23.50;99.90;;;;;;5064788;28;20843;-58
2023/08/24 12:09:05;;;;;;;17.38;11.05;;;23.50;99.90;;;;;;5068818;28;20044;-55
2023/08/24 12:15:20;;;;;;;16.13;11.10;;;23.60;99.90;;;;;;5062469;28;20104;-56
2023/08/24 12:17:49;;;;;;;13.32;10.93;;;23.70;99.90;;;;;;5065047;28;20045;-58
2023/08/24 12:20:23;;;;;;;13.30;10.85;;;23.70;99.90;;;;;;5065646;28;20075;-58
2023/08/24 12:22:53;;;;;;;14.48;10.45;;;23.70;99.90;;;;;;5066858;28;20433;-58
2023/08/24 12:25:22;;;;;;;13.05;10.57;;;23.80;99.90;;;;;;5067317;28;20060;-58
2023/08/24 12:27:48;;;;;;;14.35;10.77;;;23.90;99.90;;;;;;5067401;28;20076;-58
2023/08/24 12:30:14;;;;;;;16.73;11.20;;;23.90;99.90;;;;;;5074713;28;20158;-55
2023/08/24 12:32:57;;;;;;;11.57;10.20;;;23.90;99.90;;;;;;5066933;28;20032;-55
2023/08/24 12:35:23;;;;;;;14.40;11.18;;;24.00;99.90;;;;;;5075239;28;20827;-56
2023/08/24 12:37:49;;;;;;;14.85;10.43;;;24.00;99.90;;;;;;5073228;28;20038;-56
2023/08/24 12:40:15;;;;;;;15.10;10.98;;;24.10;99.90;;;;;;5066716;28;20436;-58
2023/08/24 12:42:41;;;;;;;19.35;10.73;;;24.10;99.90;;;;;;5070233;28;20045;-58